SCX8146 KLIT-KGPT
Flight info
| Callsign | SCX8146 |
|---|---|
| Flight time | 0h 55m |
| Altitude | 37000 |
| Route | CIPOP |
| Aircraft | B738/M-SDE2E3FGHIRWXY/LB1 |
Departure
| Time | 2026-04-15 21:51 |
|---|---|
| Airport | Bill & Hillary Clinton National Airport/Adams Field (KLIT) |
Arrival
| Time | 2026-04-15 22:46 |
|---|---|
| Airport | Gulfport Biloxi International Airport (KGPT) |
| Time | Latitude | Longitude | Altitude | Speed | Heading |
|---|---|---|---|---|---|
| 2026-04-15 21:29 | 34.73115 | -92.21997 | 269 ft | 0 kts | 156° |
| 2026-04-15 21:44 | 34.73117 | -92.21998 | 269 ft | 3 kts | 156° |
| 2026-04-15 21:45 | 34.73139 | -92.22013 | 269 ft | 4 kts | 136° |
| 2026-04-15 21:45 | 34.73150 | -92.22034 | 269 ft | 4 kts | 70° |
| 2026-04-15 21:45 | 34.73146 | -92.22041 | 269 ft | 1 kts | 20° |
| 2026-04-15 21:48 | 34.73154 | -92.22038 | 269 ft | 4 kts | 18° |
| 2026-04-15 21:48 | 34.73235 | -92.22076 | 269 ft | 17 kts | 308° |
| 2026-04-15 21:48 | 34.73274 | -92.22176 | 269 ft | 11 kts | 297° |
| 2026-04-15 21:49 | 34.73348 | -92.22205 | 270 ft | 16 kts | 29° |
| 2026-04-15 21:49 | 34.73458 | -92.22070 | 268 ft | 25 kts | 47° |
| 2026-04-15 21:49 | 34.73580 | -92.21914 | 268 ft | 25 kts | 47° |
| 2026-04-15 21:49 | 34.73696 | -92.21769 | 268 ft | 23 kts | 37° |
| 2026-04-15 21:50 | 34.73781 | -92.21820 | 266 ft | 12 kts | 283° |
| 2026-04-15 21:50 | 34.73723 | -92.21932 | 265 ft | 34 kts | 225° |
| 2026-04-15 21:50 | 34.73391 | -92.22351 | 267 ft | 100 kts | 226° |
| 2026-04-15 21:50 | 34.72774 | -92.23130 | 315 ft | 150 kts | 226° |
| 2026-04-15 21:51 | 34.72063 | -92.24062 | 1078 ft | 147 kts | 228° |
| 2026-04-15 21:51 | 34.71380 | -92.25020 | 1842 ft | 151 kts | 228° |
| 2026-04-15 21:51 | 34.70628 | -92.25938 | 2472 ft | 168 kts | 209° |
| 2026-04-15 21:51 | 34.69367 | -92.26127 | 2766 ft | 201 kts | 168° |
| 2026-04-15 21:52 | 34.68044 | -92.25312 | 3174 ft | 223 kts | 151° |
| 2026-04-15 21:52 | 34.66689 | -92.24274 | 3676 ft | 242 kts | 151° |
| 2026-04-15 21:52 | 34.65195 | -92.23141 | 4206 ft | 259 kts | 151° |
| 2026-04-15 21:52 | 34.63657 | -92.21971 | 5112 ft | 262 kts | 152° |
| 2026-04-15 21:53 | 34.62091 | -92.20779 | 5924 ft | 269 kts | 152° |
| 2026-04-15 21:53 | 34.60497 | -92.19565 | 6796 ft | 272 kts | 152° |
| 2026-04-15 21:53 | 34.58884 | -92.18336 | 7613 ft | 275 kts | 152° |
| 2026-04-15 21:53 | 34.57259 | -92.17099 | 8460 ft | 278 kts | 152° |
| 2026-04-15 21:54 | 34.55602 | -92.15837 | 9249 ft | 284 kts | 152° |
| 2026-04-15 21:54 | 34.53915 | -92.14555 | 10072 ft | 287 kts | 152° |
| 2026-04-15 21:54 | 34.52180 | -92.13239 | 10537 ft | 305 kts | 152° |
| 2026-04-15 21:54 | 34.50318 | -92.11831 | 10886 ft | 323 kts | 152° |
| 2026-04-15 21:55 | 34.48395 | -92.10372 | 11575 ft | 328 kts | 152° |
| 2026-04-15 21:55 | 34.46458 | -92.08897 | 12384 ft | 330 kts | 152° |
| 2026-04-15 21:55 | 34.44501 | -92.07410 | 13150 ft | 334 kts | 153° |
| 2026-04-15 21:55 | 34.42519 | -92.05904 | 13902 ft | 339 kts | 153° |
| 2026-04-15 21:56 | 34.40506 | -92.04377 | 14593 ft | 343 kts | 153° |
| 2026-04-15 21:56 | 34.38495 | -92.02852 | 15292 ft | 348 kts | 153° |
| 2026-04-15 21:56 | 34.36436 | -92.01293 | 16014 ft | 352 kts | 153° |
| 2026-04-15 21:56 | 34.34350 | -91.99714 | 16768 ft | 355 kts | 153° |
| 2026-04-15 21:57 | 34.32243 | -91.98120 | 17509 ft | 359 kts | 153° |
| 2026-04-15 21:57 | 34.30114 | -91.96511 | 18236 ft | 363 kts | 154° |
| 2026-04-15 21:57 | 34.27957 | -91.94881 | 18883 ft | 366 kts | 154° |
| 2026-04-15 21:57 | 34.25788 | -91.93243 | 19560 ft | 368 kts | 154° |
| 2026-04-15 21:58 | 34.23610 | -91.91600 | 20238 ft | 371 kts | 154° |
| 2026-04-15 21:58 | 34.21416 | -91.89946 | 20917 ft | 373 kts | 155° |
| 2026-04-15 21:58 | 34.19209 | -91.88282 | 21557 ft | 375 kts | 155° |
| 2026-04-15 21:58 | 34.17707 | -91.87151 | 21979 ft | 377 kts | 155° |
| 2026-04-15 21:59 | 34.14739 | -91.84917 | 22789 ft | 382 kts | 155° |
| 2026-04-15 21:59 | 34.12480 | -91.83218 | 23394 ft | 385 kts | 155° |
| 2026-04-15 21:59 | 34.10195 | -91.81502 | 23928 ft | 388 kts | 156° |
| 2026-04-15 21:59 | 34.08645 | -91.80337 | 24263 ft | 389 kts | 156° |
| 2026-04-15 22:00 | 34.06340 | -91.78606 | 24761 ft | 392 kts | 156° |
| 2026-04-15 22:00 | 34.03264 | -91.76297 | 25413 ft | 395 kts | 156° |
| 2026-04-15 22:00 | 34.01680 | -91.75110 | 25744 ft | 397 kts | 156° |
| 2026-04-15 22:00 | 33.99327 | -91.73347 | 26219 ft | 399 kts | 156° |
| 2026-04-15 22:01 | 33.96962 | -91.71576 | 26676 ft | 402 kts | 156° |
| 2026-04-15 22:01 | 33.94580 | -91.69793 | 27151 ft | 405 kts | 156° |
| 2026-04-15 22:01 | 33.92177 | -91.67996 | 27570 ft | 408 kts | 156° |
| 2026-04-15 22:01 | 33.89758 | -91.66189 | 27998 ft | 411 kts | 156° |
| 2026-04-15 22:02 | 33.87352 | -91.64392 | 28418 ft | 413 kts | 156° |
| 2026-04-15 22:02 | 33.84900 | -91.62562 | 28838 ft | 416 kts | 156° |
| 2026-04-15 22:02 | 33.82433 | -91.60721 | 29258 ft | 419 kts | 156° |
| 2026-04-15 22:02 | 33.79953 | -91.58872 | 29672 ft | 421 kts | 156° |
| 2026-04-15 22:03 | 33.77456 | -91.57012 | 30066 ft | 424 kts | 156° |
| 2026-04-15 22:03 | 33.74913 | -91.55120 | 30386 ft | 427 kts | 156° |
| 2026-04-15 22:03 | 33.72412 | -91.53261 | 30650 ft | 430 kts | 156° |
| 2026-04-15 22:03 | 33.69852 | -91.51358 | 30924 ft | 434 kts | 156° |
| 2026-04-15 22:04 | 33.67275 | -91.49445 | 31193 ft | 437 kts | 156° |
| 2026-04-15 22:04 | 33.64684 | -91.47521 | 31506 ft | 439 kts | 156° |
| 2026-04-15 22:04 | 33.62087 | -91.45593 | 31891 ft | 439 kts | 156° |
| 2026-04-15 22:04 | 33.59489 | -91.43665 | 32256 ft | 439 kts | 156° |
| 2026-04-15 22:05 | 33.56885 | -91.41735 | 32600 ft | 440 kts | 156° |
| 2026-04-15 22:05 | 33.54274 | -91.39802 | 32938 ft | 441 kts | 156° |
| 2026-04-15 22:05 | 33.51660 | -91.37868 | 33261 ft | 442 kts | 156° |
| 2026-04-15 22:05 | 33.49043 | -91.35933 | 33550 ft | 444 kts | 156° |
| 2026-04-15 22:06 | 33.46403 | -91.33983 | 33887 ft | 445 kts | 156° |
| 2026-04-15 22:06 | 33.43773 | -91.32041 | 34261 ft | 444 kts | 156° |
| 2026-04-15 22:06 | 33.41143 | -91.30101 | 34534 ft | 445 kts | 157° |
| 2026-04-15 22:06 | 33.38503 | -91.28157 | 34779 ft | 446 kts | 157° |
| 2026-04-15 22:07 | 33.35858 | -91.26211 | 35044 ft | 447 kts | 157° |
| 2026-04-15 22:07 | 33.33204 | -91.24259 | 35333 ft | 448 kts | 158° |
| 2026-04-15 22:07 | 33.30547 | -91.22306 | 35595 ft | 449 kts | 158° |
| 2026-04-15 22:07 | 33.27885 | -91.20353 | 35851 ft | 449 kts | 158° |
| 2026-04-15 22:08 | 33.25220 | -91.18397 | 36119 ft | 450 kts | 158° |
| 2026-04-15 22:08 | 33.22550 | -91.16437 | 36376 ft | 451 kts | 158° |
| 2026-04-15 22:08 | 33.19875 | -91.14474 | 36633 ft | 451 kts | 159° |
| 2026-04-15 22:08 | 33.17201 | -91.12515 | 36890 ft | 452 kts | 159° |
| 2026-04-15 22:09 | 33.14548 | -91.10573 | 37076 ft | 454 kts | 159° |
| 2026-04-15 22:09 | 33.09120 | -91.06609 | 37069 ft | 459 kts | 159° |
| 2026-04-15 22:10 | 33.03701 | -91.02643 | 37059 ft | 453 kts | 159° |
| 2026-04-15 22:10 | 32.98312 | -90.98708 | 37066 ft | 451 kts | 159° |
| 2026-04-15 22:11 | 32.92999 | -90.94841 | 37059 ft | 451 kts | 159° |
| 2026-04-15 22:11 | 32.87647 | -90.90953 | 37055 ft | 451 kts | 159° |
| 2026-04-15 22:12 | 32.82291 | -90.87067 | 37059 ft | 452 kts | 159° |
| 2026-04-15 22:12 | 32.76913 | -90.83169 | 37074 ft | 452 kts | 158° |
| 2026-04-15 22:13 | 32.71536 | -90.79276 | 37077 ft | 453 kts | 158° |
| 2026-04-15 22:13 | 32.66143 | -90.75378 | 37079 ft | 454 kts | 158° |
| 2026-04-15 22:14 | 32.60741 | -90.71478 | 37075 ft | 455 kts | 158° |
| 2026-04-15 22:14 | 32.55307 | -90.67564 | 36643 ft | 462 kts | 158° |
| 2026-04-15 22:14 | 32.52568 | -90.65593 | 36245 ft | 458 kts | 157° |
| 2026-04-15 22:15 | 32.49859 | -90.63639 | 35827 ft | 454 kts | 157° |
| 2026-04-15 22:15 | 32.47173 | -90.61702 | 35416 ft | 450 kts | 156° |
| 2026-04-15 22:15 | 32.44507 | -90.59782 | 34986 ft | 446 kts | 156° |
| 2026-04-15 22:15 | 32.41864 | -90.57882 | 34600 ft | 443 kts | 156° |
| 2026-04-15 22:16 | 32.39240 | -90.55999 | 34198 ft | 439 kts | 156° |
| 2026-04-15 22:16 | 32.36637 | -90.54132 | 33756 ft | 436 kts | 155° |
| 2026-04-15 22:16 | 32.34062 | -90.52287 | 33318 ft | 432 kts | 155° |
| 2026-04-15 22:16 | 32.31505 | -90.50456 | 32906 ft | 428 kts | 155° |
| 2026-04-15 22:17 | 32.28969 | -90.48641 | 32527 ft | 424 kts | 155° |
| 2026-04-15 22:17 | 32.26453 | -90.46842 | 32129 ft | 420 kts | 155° |
| 2026-04-15 22:17 | 32.23964 | -90.45064 | 31741 ft | 416 kts | 155° |
| 2026-04-15 22:17 | 32.21494 | -90.43300 | 31365 ft | 413 kts | 155° |
| 2026-04-15 22:18 | 32.19082 | -90.41578 | 30999 ft | 409 kts | 155° |
| 2026-04-15 22:18 | 32.16656 | -90.39849 | 30623 ft | 406 kts | 155° |
| 2026-04-15 22:18 | 32.14244 | -90.38130 | 30254 ft | 403 kts | 155° |
| 2026-04-15 22:18 | 32.11824 | -90.36407 | 29830 ft | 400 kts | 155° |
| 2026-04-15 22:19 | 32.09449 | -90.34715 | 29416 ft | 396 kts | 155° |
| 2026-04-15 22:19 | 32.07102 | -90.33045 | 29026 ft | 393 kts | 155° |
| 2026-04-15 22:19 | 32.04772 | -90.31387 | 28653 ft | 389 kts | 155° |
| 2026-04-15 22:19 | 32.02464 | -90.29747 | 28254 ft | 386 kts | 154° |
| 2026-04-15 22:20 | 32.00174 | -90.28121 | 27885 ft | 383 kts | 154° |
| 2026-04-15 22:20 | 31.97898 | -90.26506 | 27493 ft | 381 kts | 154° |
| 2026-04-15 22:20 | 31.95663 | -90.24922 | 27127 ft | 378 kts | 154° |
| 2026-04-15 22:20 | 31.93386 | -90.23307 | 26759 ft | 376 kts | 154° |
| 2026-04-15 22:21 | 31.91151 | -90.21724 | 26383 ft | 374 kts | 154° |
| 2026-04-15 22:21 | 31.88931 | -90.20152 | 26019 ft | 372 kts | 154° |
| 2026-04-15 22:21 | 31.86749 | -90.18608 | 25658 ft | 370 kts | 154° |
| 2026-04-15 22:21 | 31.84550 | -90.17053 | 25296 ft | 368 kts | 154° |
| 2026-04-15 22:22 | 31.82355 | -90.15502 | 24937 ft | 367 kts | 154° |
| 2026-04-15 22:22 | 31.80143 | -90.13939 | 24570 ft | 366 kts | 153° |
| 2026-04-15 22:22 | 31.77993 | -90.12421 | 24216 ft | 364 kts | 153° |
| 2026-04-15 22:22 | 31.75821 | -90.10889 | 23865 ft | 364 kts | 153° |
| 2026-04-15 22:23 | 31.73655 | -90.09361 | 23450 ft | 363 kts | 153° |
| 2026-04-15 22:23 | 31.71495 | -90.07838 | 23042 ft | 361 kts | 153° |
| 2026-04-15 22:23 | 31.69344 | -90.06322 | 22657 ft | 359 kts | 153° |
| 2026-04-15 22:23 | 31.67207 | -90.04817 | 22299 ft | 357 kts | 153° |
| 2026-04-15 22:24 | 31.65083 | -90.03321 | 21932 ft | 355 kts | 153° |
| 2026-04-15 22:24 | 31.62971 | -90.01835 | 21569 ft | 353 kts | 153° |
| 2026-04-15 22:24 | 31.60870 | -90.00357 | 21220 ft | 351 kts | 153° |
| 2026-04-15 22:24 | 31.58781 | -89.98889 | 20869 ft | 349 kts | 153° |
| 2026-04-15 22:25 | 31.56705 | -89.97431 | 20512 ft | 347 kts | 153° |
| 2026-04-15 22:25 | 31.54635 | -89.95978 | 20165 ft | 346 kts | 153° |
| 2026-04-15 22:25 | 31.52576 | -89.94534 | 19825 ft | 344 kts | 153° |
| 2026-04-15 22:25 | 31.50523 | -89.93094 | 19482 ft | 343 kts | 153° |
| 2026-04-15 22:26 | 31.48479 | -89.91662 | 19134 ft | 342 kts | 152° |
| 2026-04-15 22:26 | 31.46439 | -89.90233 | 18787 ft | 341 kts | 152° |
| 2026-04-15 22:26 | 31.44404 | -89.88808 | 18441 ft | 340 kts | 152° |
| 2026-04-15 22:26 | 31.42377 | -89.87389 | 18053 ft | 339 kts | 152° |
| 2026-04-15 22:27 | 31.40352 | -89.85973 | 17680 ft | 338 kts | 152° |
| 2026-04-15 22:27 | 31.38338 | -89.84565 | 17310 ft | 336 kts | 152° |
| 2026-04-15 22:27 | 31.36340 | -89.83168 | 16966 ft | 334 kts | 152° |
| 2026-04-15 22:27 | 31.34339 | -89.81772 | 16525 ft | 335 kts | 152° |
| 2026-04-15 22:28 | 31.32341 | -89.80377 | 16163 ft | 334 kts | 152° |
| 2026-04-15 22:28 | 31.30347 | -89.78986 | 15804 ft | 333 kts | 152° |
| 2026-04-15 22:28 | 31.28366 | -89.77604 | 15457 ft | 331 kts | 152° |
| 2026-04-15 22:28 | 31.26394 | -89.76229 | 15114 ft | 329 kts | 151° |
| 2026-04-15 22:29 | 31.24428 | -89.74859 | 14777 ft | 328 kts | 152° |
| 2026-04-15 22:29 | 31.22475 | -89.73499 | 14437 ft | 326 kts | 151° |
| 2026-04-15 22:29 | 31.20531 | -89.72146 | 14107 ft | 325 kts | 151° |
| 2026-04-15 22:29 | 31.18593 | -89.70798 | 13764 ft | 323 kts | 151° |
| 2026-04-15 22:30 | 31.16669 | -89.69459 | 13389 ft | 322 kts | 151° |
| 2026-04-15 22:30 | 31.14753 | -89.68128 | 13029 ft | 318 kts | 151° |
| 2026-04-15 22:30 | 31.12886 | -89.66830 | 12697 ft | 307 kts | 151° |
| 2026-04-15 22:30 | 31.11080 | -89.65576 | 12383 ft | 297 kts | 151° |
| 2026-04-15 22:31 | 31.09329 | -89.64359 | 12076 ft | 288 kts | 151° |
| 2026-04-15 22:31 | 31.07628 | -89.63178 | 11775 ft | 281 kts | 151° |
| 2026-04-15 22:31 | 31.05991 | -89.62043 | 11483 ft | 274 kts | 151° |
| 2026-04-15 22:31 | 31.04372 | -89.60920 | 11204 ft | 268 kts | 151° |
| 2026-04-15 22:32 | 31.02778 | -89.59816 | 10921 ft | 266 kts | 151° |
| 2026-04-15 22:32 | 31.01190 | -89.58717 | 10651 ft | 265 kts | 151° |
| 2026-04-15 22:32 | 30.99587 | -89.57609 | 10385 ft | 272 kts | 151° |
| 2026-04-15 22:32 | 30.97937 | -89.56469 | 10160 ft | 276 kts | 151° |
| 2026-04-15 22:33 | 30.96306 | -89.55340 | 10020 ft | 269 kts | 151° |
| 2026-04-15 22:33 | 30.94699 | -89.54229 | 9728 ft | 268 kts | 151° |
| 2026-04-15 22:33 | 30.93098 | -89.53122 | 9446 ft | 266 kts | 151° |
| 2026-04-15 22:33 | 30.91512 | -89.52026 | 9162 ft | 265 kts | 151° |
| 2026-04-15 22:34 | 30.89931 | -89.50933 | 8904 ft | 263 kts | 151° |
| 2026-04-15 22:34 | 30.88360 | -89.49850 | 8605 ft | 262 kts | 151° |
| 2026-04-15 22:34 | 30.86800 | -89.48773 | 8351 ft | 260 kts | 151° |
| 2026-04-15 22:34 | 30.85247 | -89.47701 | 8084 ft | 259 kts | 151° |
| 2026-04-15 22:35 | 30.83700 | -89.46635 | 7822 ft | 258 kts | 151° |
| 2026-04-15 22:35 | 30.82159 | -89.45572 | 7556 ft | 257 kts | 150° |
| 2026-04-15 22:35 | 30.80626 | -89.44516 | 7296 ft | 256 kts | 150° |
| 2026-04-15 22:35 | 30.79093 | -89.43460 | 7023 ft | 256 kts | 151° |
| 2026-04-15 22:36 | 30.77560 | -89.42404 | 6764 ft | 255 kts | 150° |
| 2026-04-15 22:36 | 30.76070 | -89.41378 | 6670 ft | 241 kts | 150° |
| 2026-04-15 22:36 | 30.74669 | -89.40412 | 6539 ft | 226 kts | 150° |
| 2026-04-15 22:36 | 30.73366 | -89.39515 | 6360 ft | 212 kts | 151° |
| 2026-04-15 22:37 | 30.72124 | -89.38662 | 6221 ft | 202 kts | 151° |
| 2026-04-15 22:37 | 30.70952 | -89.37857 | 6088 ft | 191 kts | 151° |
| 2026-04-15 22:37 | 30.69787 | -89.37056 | 5725 ft | 192 kts | 151° |
| 2026-04-15 22:37 | 30.68668 | -89.36286 | 5524 ft | 185 kts | 152° |
| 2026-04-15 22:38 | 30.67551 | -89.35516 | 5267 ft | 186 kts | 152° |
| 2026-04-15 22:38 | 30.66433 | -89.34750 | 4923 ft | 189 kts | 152° |
| 2026-04-15 22:38 | 30.65313 | -89.33982 | 4706 ft | 185 kts | 152° |
| 2026-04-15 22:38 | 30.64212 | -89.33228 | 4462 ft | 182 kts | 152° |
| 2026-04-15 22:39 | 30.63137 | -89.32488 | 4251 ft | 178 kts | 152° |
| 2026-04-15 22:39 | 30.62093 | -89.31771 | 4053 ft | 176 kts | 151° |
| 2026-04-15 22:39 | 30.61119 | -89.30911 | 3839 ft | 179 kts | 141° |
| 2026-04-15 22:39 | 30.60192 | -89.29905 | 3531 ft | 185 kts | 139° |
| 2026-04-15 22:40 | 30.59253 | -89.28841 | 3228 ft | 191 kts | 139° |
| 2026-04-15 22:40 | 30.58297 | -89.27744 | 2896 ft | 194 kts | 137° |
| 2026-04-15 22:40 | 30.57345 | -89.26635 | 2601 ft | 192 kts | 137° |
| 2026-04-15 22:41 | 30.55516 | -89.24515 | 2204 ft | 182 kts | 137° |
| 2026-04-15 22:41 | 30.54633 | -89.23489 | 2051 ft | 174 kts | 137° |
| 2026-04-15 22:41 | 30.53813 | -89.22537 | 2012 ft | 160 kts | 137° |
| 2026-04-15 22:41 | 30.53021 | -89.21620 | 1987 ft | 163 kts | 137° |
| 2026-04-15 22:42 | 30.52220 | -89.20688 | 2020 ft | 164 kts | 137° |
| 2026-04-15 22:42 | 30.51427 | -89.19770 | 1988 ft | 158 kts | 137° |
| 2026-04-15 22:42 | 30.50654 | -89.18870 | 1999 ft | 157 kts | 137° |
| 2026-04-15 22:42 | 30.49875 | -89.17971 | 2039 ft | 160 kts | 138° |
| 2026-04-15 22:43 | 30.49090 | -89.17057 | 1981 ft | 156 kts | 138° |
| 2026-04-15 22:43 | 30.48318 | -89.16159 | 1831 ft | 161 kts | 138° |
| 2026-04-15 22:43 | 30.47557 | -89.15275 | 1700 ft | 149 kts | 139° |
| 2026-04-15 22:43 | 30.46861 | -89.14464 | 1504 ft | 136 kts | 140° |
| 2026-04-15 22:44 | 30.46213 | -89.13710 | 1317 ft | 128 kts | 140° |
| 2026-04-15 22:44 | 30.45576 | -89.12974 | 1143 ft | 130 kts | 140° |
| 2026-04-15 22:44 | 30.44944 | -89.12226 | 961 ft | 130 kts | 137° |
| 2026-04-15 22:44 | 30.44311 | -89.11485 | 816 ft | 129 kts | 137° |
| 2026-04-15 22:45 | 30.43651 | -89.10711 | 708 ft | 145 kts | 139° |
| 2026-04-15 22:45 | 30.42930 | -89.09875 | 529 ft | 147 kts | 138° |
| 2026-04-15 22:45 | 30.42239 | -89.09068 | 332 ft | 133 kts | 138° |
| 2026-04-15 22:45 | 30.41812 | -89.08574 | 173 ft | 130 kts | 138° |
| 2026-04-15 22:46 | 30.41203 | -89.07888 | 31 ft | 111 kts | 135° |
| 2026-04-15 22:46 | 30.40756 | -89.07372 | 27 ft | 68 kts | 136° |
| 2026-04-15 22:46 | 30.40634 | -89.07139 | 28 ft | 22 kts | 44° |
| 2026-04-15 22:46 | 30.40757 | -89.07090 | 30 ft | 20 kts | 321° |
| 2026-04-15 22:47 | 30.40880 | -89.07230 | 27 ft | 18 kts | 315° |
| 2026-04-15 22:47 | 30.40941 | -89.07303 | 28 ft | 20 kts | 315° |
| 2026-04-15 22:47 | 30.41048 | -89.07412 | 27 ft | 20 kts | 338° |
| 2026-04-15 22:47 | 30.41149 | -89.07337 | 27 ft | 17 kts | 66° |
| 2026-04-15 22:48 | 30.41178 | -89.07261 | 28 ft | 6 kts | 19° |
| 2026-04-15 22:48 | 30.41195 | -89.07255 | 28 ft | 2 kts | 19° |
| 2026-04-15 22:48 | 30.41201 | -89.07252 | 28 ft | 0 kts | 20° |